Kokomo, IN

10:29 PM EDT on May 20, 2018 (GMT -0400)
Kokomo Municipal

Weather History for KOKK - January, 2013

Change the Weather History Date:

Friday, January 18, 2013

  Actual Average (KGUS) Record (KGUS)
Temperature  
Mean Temperature 29 °F -  
Max Temperature 39 °F 28 °F 37 °F (2011)
Min Temperature 19 °F 16 °F -7 °F (1997)
Degree Days  
Heating Degree Days 36    
Moisture  
Dew Point 20 °F    
Average Humidity 67    
Maximum Humidity 86    
Minimum Humidity 49    
Precipitation  
Precipitation 0.00 in - - ()
Sea Level Pressure  
Sea Level Pressure 30.30 in    
Wind  
Wind Speed 12 mph (SW)    
Max Wind Speed 28 mph    
Max Gust Speed 39 mph    
Visibility 10 miles    
Events      
Averages and records for this station are not official NWS values.
T = Trace of Precipitation, MM = Missing Value Source: NWS Daily Summary

Daily Weather History Graph

Daily Weather History Graph

Search for Another Location

Airport or City:

Astronomy

Jan. 18, 2013 Rise Set
Actual Time 7:04 AM CST 4:45 PM CST
Civil Twilight 6:34 AM CST 5:15 PM CST
Nautical Twilight 6:00 AM CST 5:49 PM CST
Astronomical Twilight 5:28 AM CST 6:21 PM CST
Moon 10:40 AM CST (1/18) No Moon Set
Length of Visible Light 10h 41m
Length of Day
9h 41m
Waxing Crescent, 47% of the Moon is Illuminated
Jan 18
Waxing Crescent
Jan 18
First Quarter
Jan 26
Full
Feb 3
Last Quarter
Feb 10
New

Hourly Weather History & Observations

Time (CST) Temp. Windchill Dew Point Humidity Pressure Visibility Wind Dir Wind Speed Gust Speed Precip Events Conditions
12:15 AM 19.4 °F 9.5 °F 15.8 °F 86% 30.40 in 10.0 mi WSW 8.1 mph - N/A   Clear
12:35 AM 21.2 °F 12.6 °F 14.0 °F 74% 30.41 in 10.0 mi WSW 6.9 mph - N/A   Clear
12:55 AM 21.2 °F 10.9 °F 15.8 °F 80% 30.42 in 10.0 mi WSW 9.2 mph - N/A   Clear
1:15 AM 21.2 °F 12.6 °F 17.6 °F 86% 30.42 in 10.0 mi WSW 6.9 mph - N/A   Clear
1:35 AM 19.4 °F 10.4 °F 15.8 °F 86% 30.44 in 10.0 mi WSW 6.9 mph - N/A   Clear
1:55 AM 21.2 °F 12.6 °F 15.8 °F 80% 30.43 in 10.0 mi WSW 6.9 mph - N/A   Clear
2:15 AM 19.4 °F 9.5 °F 15.8 °F 86% 30.44 in 10.0 mi WSW 8.1 mph - N/A   Clear
2:35 AM 21.2 °F 12.6 °F 17.6 °F 86% 30.44 in 10.0 mi WSW 6.9 mph - N/A   Clear
2:55 AM 19.4 °F 11.5 °F 15.8 °F 86% 30.44 in 10.0 mi SW 5.8 mph - N/A   Clear
3:15 AM 19.4 °F 12.8 °F 14.0 °F 80% 30.43 in 10.0 mi SW 4.6 mph - N/A   Clear
3:35 AM 19.4 °F 11.5 °F 15.8 °F 86% 30.42 in 10.0 mi SW 5.8 mph - N/A   Clear
3:55 AM 19.4 °F 11.5 °F 15.8 °F 86% 30.42 in 10.0 mi SW 5.8 mph - N/A   Clear
4:15 AM 19.4 °F 11.5 °F 14.0 °F 80% 30.42 in 10.0 mi SW 5.8 mph - N/A   Clear
4:35 AM 19.4 °F 10.4 °F 15.8 °F 86% 30.44 in 10.0 mi SW 6.9 mph - N/A   Clear
4:55 AM 19.4 °F 10.4 °F 15.8 °F 86% 30.43 in 10.0 mi SSW 6.9 mph - N/A   Clear
5:15 AM 19.4 °F 11.5 °F 14.0 °F 80% 30.43 in 10.0 mi SW 5.8 mph - N/A   Clear
5:35 AM 21.2 °F 13.6 °F 15.8 °F 80% 30.44 in 10.0 mi SSW 5.8 mph - N/A   Clear
5:55 AM 19.4 °F 10.4 °F 15.8 °F 86% 30.44 in 10.0 mi SSW 6.9 mph - N/A   Clear
6:15 AM 19.4 °F 10.4 °F 15.8 °F 86% 30.44 in 10.0 mi SW 6.9 mph - N/A   Clear
6:35 AM 21.2 °F 13.6 °F 15.8 °F 80% 30.43 in 10.0 mi SSW 5.8 mph - N/A   Clear
6:55 AM 21.2 °F 13.6 °F 17.6 °F 86% 30.44 in 10.0 mi SW 5.8 mph - N/A   Clear
7:15 AM 21.2 °F 13.6 °F 14.0 °F 74% 30.44 in 10.0 mi SW 5.8 mph - N/A   Clear
7:35 AM 21.2 °F 12.6 °F 17.6 °F 86% 30.44 in 10.0 mi SW 6.9 mph - N/A   Clear
7:55 AM 23.0 °F 13.9 °F 17.6 °F 80% 30.44 in 10.0 mi SSW 8.1 mph - N/A   Clear
8:15 AM 24.8 °F 16.1 °F 19.4 °F 80% 30.44 in 10.0 mi SSW 8.1 mph - N/A   Clear
8:35 AM 26.6 °F 18.2 °F 17.6 °F 69% 30.44 in 10.0 mi SSW 8.1 mph - N/A   Clear
8:55 AM 26.6 °F 16.8 °F 19.4 °F 74% 30.45 in 10.0 mi SSW 10.4 mph - N/A   Clear
9:15 AM 28.4 °F 18.5 °F 19.4 °F 69% 30.44 in 10.0 mi SSW 11.5 mph - N/A   Clear
9:55 AM 30.2 °F 19.3 °F 21.2 °F 69% 30.44 in 10.0 mi SW 15.0 mph 18.4 mph N/A   Clear
10:15 AM 30.2 °F 18.9 °F 21.2 °F 69% 30.43 in 10.0 mi SW 16.1 mph - N/A   Clear
10:35 AM 32.0 °F 20.5 °F 21.2 °F 64% 30.41 in 10.0 mi SSW 18.4 mph - N/A   Clear
10:55 AM 33.8 °F 22.8 °F 21.2 °F 60% 30.40 in 10.0 mi SSW 18.4 mph 23.0 mph N/A   Clear
11:15 AM 33.8 °F 22.2 °F 21.2 °F 60% 30.38 in 10.0 mi SSW 20.7 mph 26.5 mph N/A   Clear
11:35 AM 33.8 °F 22.2 °F 23.0 °F 65% 30.37 in 10.0 mi SSW 20.7 mph 25.3 mph N/A   Clear
11:55 AM 35.6 °F 25.2 °F 21.2 °F 56% 30.35 in 10.0 mi SW 18.4 mph - N/A   Clear
12:15 PM 35.6 °F 24.2 °F 23.0 °F 60% 30.34 in 10.0 mi SSW 21.9 mph - N/A   Clear
12:35 PM 35.6 °F 24.8 °F 21.2 °F 56% 30.32 in 10.0 mi SSW 19.6 mph 26.5 mph N/A   Clear
12:55 PM 37.4 °F 27.5 °F 23.0 °F 56% 30.30 in 10.0 mi SW 18.4 mph - N/A   Clear
1:15 PM 37.4 °F 27.8 °F 21.2 °F 52% 30.29 in 10.0 mi SSW 17.3 mph - N/A   Clear
1:35 PM 37.4 °F 27.2 °F 21.2 °F 52% 30.28 in 10.0 mi SW 19.6 mph 28.8 mph N/A   Clear
1:55 PM 37.4 °F 26.4 °F 21.2 °F 52% 30.26 in 10.0 mi SSW 23.0 mph 27.6 mph N/A   Clear
2:15 PM 37.4 °F 26.4 °F 21.2 °F 52% 30.26 in 10.0 mi SSW 23.0 mph 28.8 mph N/A   Clear
2:35 PM 37.4 °F 27.5 °F 21.2 °F 52% 30.25 in 10.0 mi SSW 18.4 mph 24.2 mph N/A   Clear
2:55 PM 39.2 °F 29.8 °F 21.2 °F 49% 30.23 in 10.0 mi SSW 18.4 mph 26.5 mph N/A   Clear
3:15 PM 39.2 °F 30.2 °F 21.2 °F 49% 30.22 in 10.0 mi SSW 17.3 mph 24.2 mph N/A   Clear
3:35 PM 37.4 °F 26.6 °F 21.2 °F 52% 30.20 in 10.0 mi SSW 21.9 mph - N/A   Clear
3:55 PM 37.4 °F 26.9 °F 21.2 °F 52% 30.19 in 10.0 mi SSW 20.7 mph 25.3 mph N/A   Clear
4:15 PM 37.4 °F 27.8 °F 21.2 °F 52% 30.18 in 10.0 mi SSW 17.3 mph 21.9 mph N/A   Clear
4:35 PM 35.6 °F 25.5 °F 21.2 °F 56% 30.18 in 10.0 mi SSW 17.3 mph 20.7 mph N/A   Clear
4:55 PM 35.6 °F 25.2 °F 21.2 °F 56% 30.17 in 10.0 mi SSW 18.4 mph 21.9 mph N/A   Clear
5:15 PM 35.6 °F 25.2 °F 21.2 °F 56% 30.17 in 10.0 mi SSW 18.4 mph 24.2 mph N/A   Clear
5:35 PM 35.6 °F 24.8 °F 21.2 °F 56% 30.17 in 10.0 mi South 19.6 mph 28.8 mph N/A   Clear
5:55 PM 35.6 °F 24.5 °F 21.2 °F 56% 30.16 in 10.0 mi SSW 20.7 mph - N/A   Clear
6:15 PM 35.6 °F 24.8 °F 21.2 °F 56% 30.15 in 10.0 mi SSW 19.6 mph - N/A   Clear
6:35 PM 35.6 °F 24.5 °F 21.2 °F 56% 30.15 in 10.0 mi SSW 20.7 mph 24.2 mph N/A   Clear
6:55 PM 37.4 °F 26.9 °F 21.2 °F 52% 30.14 in 10.0 mi SSW 20.7 mph 27.6 mph N/A   Clear
7:15 PM 37.4 °F 26.6 °F 21.2 °F 52% 30.13 in 10.0 mi SSW 21.9 mph - N/A   Clear
7:35 PM 37.4 °F 26.1 °F 21.2 °F 52% 30.12 in 10.0 mi SSW 24.2 mph 31.1 mph N/A   Clear
7:55 PM 37.4 °F 25.6 °F 21.2 °F 52% 30.10 in 10.0 mi SSW 26.5 mph 33.4 mph N/A   Clear
8:15 PM 37.4 °F 25.4 °F 23.0 °F 56% 30.10 in 10.0 mi SSW 27.6 mph 39.1 mph N/A   Clear
8:35 PM 37.4 °F 25.9 °F 24.8 °F 60% 30.09 in 10.0 mi SSW 25.3 mph 34.5 mph N/A   Clear
8:55 PM 37.4 °F 25.4 °F 23.0 °F 56% 30.08 in 10.0 mi SSW 27.6 mph 34.5 mph N/A   Clear
9:35 PM 37.4 °F 25.4 °F 24.8 °F 60% 30.08 in 10.0 mi SSW 27.6 mph 34.5 mph N/A   Clear
9:55 PM 37.4 °F 26.1 °F 24.8 °F 60% 30.08 in 10.0 mi SW 24.2 mph 33.4 mph N/A   Clear
10:15 PM 37.4 °F 26.1 °F 24.8 °F 60% 30.08 in 10.0 mi SSW 24.2 mph 36.8 mph N/A   Clear
10:35 PM 39.2 °F 28.5 °F 24.8 °F 56% 30.08 in 10.0 mi SW 24.2 mph 32.2 mph N/A   Clear
10:55 PM 37.4 °F 26.6 °F 24.8 °F 60% 30.08 in 10.0 mi SW 21.9 mph 32.2 mph N/A   Clear
11:15 PM 37.4 °F 26.9 °F 24.8 °F 60% 30.08 in 10.0 mi SW 20.7 mph 27.6 mph N/A   Clear
11:35 PM 37.4 °F 27.2 °F 24.8 °F 60% 30.07 in 10.0 mi SW 19.6 mph 25.3 mph N/A   Clear
11:55 PM 37.4 °F 26.4 °F 24.8 °F 60% 30.08 in 10.0 mi SW 23.0 mph 29.9 mph N/A   Clear